createdAt,value
2019-03-08T14:36:11.539Z,16.50
2019-03-08T14:38:38.045Z,16.80
2019-03-08T14:41:06.574Z,17.00
2019-03-08T14:43:49.018Z,17.10
2019-03-08T14:46:20.973Z,16.00
2019-03-08T14:48:47.424Z,16.10
2019-03-08T14:51:13.879Z,18.20
2019-03-08T14:53:40.469Z,20.10
2019-03-08T14:56:06.791Z,19.80
2019-03-08T14:58:36.863Z,18.50
2019-03-08T15:01:02.157Z,18.10
2019-03-08T15:03:29.227Z,19.60
2019-03-08T15:05:55.988Z,19.60
2019-03-08T15:08:22.294Z,19.70
2019-03-08T15:10:51.248Z,20.30
2019-03-08T15:13:20.211Z,18.20
2019-03-08T15:15:44.901Z,16.70
2019-03-08T15:18:11.829Z,16.30
2019-03-08T15:20:38.050Z,17.10
2019-03-08T15:23:04.357Z,18.10
2019-03-08T15:25:31.469Z,17.40
2019-03-08T15:27:57.907Z,16.20
2019-03-08T15:30:24.522Z,14.90
2019-03-08T15:32:50.866Z,14.10
2019-03-08T15:35:17.597Z,13.20
2019-03-08T15:37:44.764Z,12.90
2019-03-08T15:40:14.235Z,12.50
2019-03-08T15:42:40.474Z,12.30
2019-03-08T15:45:08.982Z,12.10
2019-03-08T15:47:36.234Z,11.90
2019-03-08T15:50:08.315Z,11.80
2019-03-08T15:52:35.043Z,11.80
2019-03-08T15:55:01.282Z,11.70
2019-03-08T15:57:27.593Z,11.50
2019-03-08T15:59:53.794Z,11.50
2019-03-08T16:02:20.058Z,11.40
2019-03-08T16:04:50.166Z,11.30
2019-03-08T16:07:14.839Z,11.30
2019-03-08T16:09:41.134Z,11.30
2019-03-08T16:12:07.343Z,11.20
2019-03-08T16:14:33.737Z,11.10
2019-03-08T16:16:59.947Z,11.00
2019-03-08T16:19:26.260Z,11.00
2019-03-08T16:21:52.603Z,11.00
2019-03-08T16:24:18.922Z,11.00
2019-03-08T16:26:45.314Z,11.10
2019-03-08T16:29:11.534Z,11.00
2019-03-08T16:31:45.419Z,10.90
2019-03-08T16:34:13.959Z,10.60
2019-03-08T16:36:42.854Z,10.40
2019-03-08T16:39:16.934Z,9.90
2019-03-08T16:42:02.394Z,9.80
2019-03-08T16:44:30.622Z,9.80
2019-03-08T16:47:13.855Z,9.70
2019-03-08T16:49:57.260Z,9.70
2019-03-08T16:52:28.655Z,9.60
2019-03-08T16:55:02.559Z,9.70
2019-03-08T16:57:30.666Z,9.70
2019-03-08T17:00:01.633Z,9.60
2019-03-08T17:02:41.754Z,9.70
2019-03-08T17:05:10.187Z,9.70
2019-03-08T17:07:38.316Z,9.70
2019-03-08T17:10:24.550Z,9.60
2019-03-08T17:12:52.746Z,9.60
2019-03-08T17:15:20.974Z,9.60
2019-03-08T17:18:01.331Z,9.50
2019-03-08T17:20:32.470Z,9.50
2019-03-08T17:23:15.767Z,9.40
2019-03-08T17:25:52.905Z,9.40
2019-03-08T17:28:23.872Z,9.40
2019-03-08T17:30:58.483Z,9.40
2019-03-08T17:33:39.002Z,9.30
2019-03-08T17:36:19.232Z,9.30
2019-03-08T17:38:47.526Z,9.20
2019-03-08T17:41:22.618Z,9.10
2019-03-08T17:43:59.993Z,9.00
2019-03-08T17:46:28.110Z,9.10
2019-03-08T17:49:12.114Z,9.00
2019-03-08T17:51:49.031Z,9.10
2019-03-08T17:54:23.199Z,9.10
2019-03-08T17:56:54.947Z,9.10
2019-03-08T17:59:29.411Z,9.10
2019-03-08T18:01:57.543Z,9.10
2019-03-08T18:04:25.650Z,9.10
2019-03-08T18:07:02.878Z,9.00
2019-03-08T18:09:33.926Z,9.00
2019-03-08T18:12:11.075Z,9.00
2019-03-08T18:14:48.225Z,9.00
2019-03-08T18:17:35.810Z,9.00
2019-03-08T18:20:15.159Z,9.00
2019-03-08T18:22:49.366Z,8.90
2019-03-08T18:25:34.079Z,8.90
2019-03-08T18:28:05.167Z,8.90
2019-03-08T18:30:39.342Z,8.90
2019-03-08T18:33:07.966Z,8.90
2019-03-08T18:35:36.070Z,8.90
2019-03-08T18:38:04.190Z,9.00
2019-03-08T18:40:34.889Z,8.90
2019-03-08T18:43:15.127Z,9.00
2019-03-08T18:45:52.534Z,9.00
2019-03-08T18:48:38.918Z,8.90
2019-03-08T18:51:25.393Z,9.00
2019-03-08T18:53:56.358Z,9.00
2019-03-08T18:56:24.553Z,9.00
2019-03-08T18:59:09.474Z,9.00
2019-03-08T19:01:43.560Z,9.00
2019-03-08T19:04:11.686Z,9.00
2019-03-08T19:06:51.554Z,9.00
2019-03-08T19:09:23.002Z,8.90
2019-03-08T19:12:07.764Z,9.00
2019-03-08T19:14:45.031Z,9.00
2019-03-08T19:17:30.358Z,9.00
2019-03-08T19:19:58.588Z,8.90
2019-03-08T19:22:29.967Z,8.90
2019-03-08T19:25:00.875Z,8.90
2019-03-08T19:27:29.082Z,8.90
2019-03-08T19:30:00.005Z,8.90
2019-03-08T19:32:28.495Z,8.90
2019-03-08T19:34:59.850Z,8.90
2019-03-08T19:37:30.933Z,8.90
2019-03-08T19:40:08.190Z,8.90
2019-03-08T19:42:39.054Z,8.90
2019-03-08T19:45:09.796Z,8.90
2019-03-08T19:47:54.679Z,8.90
2019-03-08T19:50:34.752Z,8.90
2019-03-08T19:53:21.384Z,8.90
2019-03-08T19:55:58.338Z,8.90
2019-03-08T19:58:26.482Z,8.90
2019-03-08T20:00:54.719Z,8.90
2019-03-08T20:03:22.819Z,8.90
2019-03-08T20:05:57.059Z,8.90
2019-03-08T20:08:27.935Z,8.90
2019-03-08T20:10:56.054Z,8.90
2019-03-08T20:13:24.329Z,8.90
2019-03-08T20:15:55.470Z,8.80
2019-03-08T20:18:36.147Z,8.80
2019-03-08T20:21:10.464Z,8.80
2019-03-08T20:23:55.472Z,8.80
2019-03-08T20:26:23.594Z,8.70
2019-03-08T20:28:54.361Z,8.70
2019-03-08T20:31:25.262Z,8.70
2019-03-08T20:33:53.507Z,8.70
2019-03-08T20:36:30.970Z,8.70
2019-03-08T20:39:02.258Z,8.70
2019-03-08T20:41:36.306Z,8.70
2019-03-08T20:44:04.822Z,8.60
2019-03-08T20:46:32.964Z,8.50
2019-03-08T20:49:00.774Z,8.50
2019-03-08T20:51:26.979Z,8.50
2019-03-08T20:53:53.224Z,8.50
2019-03-08T20:56:19.430Z,8.40
2019-03-08T20:58:45.656Z,8.40
2019-03-08T21:01:12.049Z,8.30
2019-03-08T21:03:38.470Z,8.30
2019-03-08T21:06:04.939Z,8.30
2019-03-08T21:08:31.246Z,8.40
2019-03-08T21:10:58.445Z,8.40
2019-03-08T21:13:24.703Z,8.40
2019-03-08T21:15:50.902Z,8.50
2019-03-08T21:18:17.123Z,8.50
2019-03-08T21:20:43.423Z,8.50
2019-03-08T21:23:09.655Z,8.50
2019-03-08T21:25:35.960Z,8.50
2019-03-08T21:28:02.449Z,8.50
2019-03-08T21:30:28.803Z,8.50
2019-03-08T21:32:55.128Z,8.60
2019-03-08T21:35:21.439Z,8.60
2019-03-08T21:37:47.743Z,8.70
2019-03-08T21:40:14.166Z,8.70
2019-03-08T21:42:40.481Z,8.60
2019-03-08T21:45:10.527Z,8.70
2019-03-08T21:47:36.742Z,8.70
2019-03-08T21:50:05.775Z,8.70
2019-03-08T21:52:31.986Z,8.60
2019-03-08T21:54:58.299Z,8.60
2019-03-08T21:57:24.494Z,8.60
2019-03-08T21:59:50.968Z,8.60
2019-03-08T22:02:17.171Z,8.70
2019-03-08T22:04:45.306Z,8.70
2019-03-08T22:07:11.799Z,8.60
2019-03-08T22:09:45.986Z,8.70
2019-03-08T22:12:12.183Z,8.70
2019-03-08T22:14:38.423Z,8.70
2019-03-08T22:17:04.748Z,8.60
2019-03-08T22:19:31.046Z,8.70
2019-03-08T22:21:57.663Z,8.70
2019-03-08T22:24:23.867Z,8.70
2019-03-08T22:26:50.092Z,8.70
2019-03-08T22:29:16.391Z,8.70
2019-03-08T22:31:42.646Z,8.70
2019-03-08T22:34:09.086Z,8.70
2019-03-08T22:36:35.406Z,8.80
2019-03-08T22:39:01.702Z,8.80
2019-03-08T22:41:27.918Z,8.80
2019-03-08T22:43:54.158Z,8.70
2019-03-08T22:46:20.565Z,8.70
2019-03-08T22:48:46.858Z,8.70
2019-03-08T22:51:13.102Z,8.70
2019-03-08T22:53:39.410Z,8.80
2019-03-08T22:56:05.602Z,8.80
2019-03-08T22:58:32.136Z,8.80
2019-03-08T23:01:00.888Z,8.80
2019-03-08T23:03:28.208Z,8.80
2019-03-08T23:05:54.442Z,8.80
2019-03-08T23:08:20.766Z,8.90
2019-03-08T23:10:47.067Z,8.90
2019-03-08T23:13:13.486Z,8.90
2019-03-08T23:15:39.703Z,8.90
2019-03-08T23:18:05.925Z,8.90
2019-03-08T23:20:32.130Z,8.90
2019-03-08T23:22:58.510Z,8.90
2019-03-08T23:25:25.006Z,8.90
2019-03-08T23:28:02.124Z,9.00
2019-03-08T23:30:28.411Z,8.90
2019-03-08T23:32:54.709Z,9.00
2019-03-08T23:35:20.938Z,9.00
2019-03-08T23:37:47.234Z,9.00
2019-03-08T23:40:13.458Z,9.10
2019-03-08T23:42:39.753Z,9.10
2019-03-08T23:45:07.777Z,9.10
2019-03-08T23:47:33.992Z,9.10
2019-03-08T23:50:00.324Z,9.20
2019-03-08T23:52:26.610Z,9.20
2019-03-08T23:54:53.023Z,9.20
2019-03-08T23:57:19.227Z,9.20
2019-03-08T23:59:45.442Z,9.20
